Time;durP1;ratioP1;P1;durP2;ratioP2;P2;SDS_P1;SDS_P2;PMS_P1;PMS_P2;Temp;Humidity;BMP_temperature;BMP_pressure;BME280_temperature;BME280_humidity;BME280_pressure;Samples;Min_cycle;Max_cycle;Signal;HPM_P1;HPM_P2
2021/07/13 00:01:44;;;;;;;42.67;38.47;;;17.90;99.90;;;;;;4164249;28;20072;-76
2021/07/13 00:03:45;;;;;;;45.28;40.80;;;17.90;99.90;;;;;;4158156;28;20116;-76
2021/07/13 00:05:46;;;;;;;47.15;42.25;;;18.00;99.90;;;;;;4158748;28;20039;-76
2021/07/13 00:07:47;;;;;;;46.33;41.75;;;17.90;99.90;;;;;;4165568;28;20044;-76
2021/07/13 00:09:48;;;;;;;47.08;42.17;;;17.90;99.90;;;;;;4165568;28;20065;-76
2021/07/13 00:11:49;;;;;;;45.95;41.63;;;18.00;99.90;;;;;;4165863;28;20507;-76
2021/07/13 00:13:50;;;;;;;46.05;41.45;;;18.00;99.90;;;;;;4165358;28;20120;-77
2021/07/13 00:15:51;;;;;;;42.72;38.60;;;18.00;99.90;;;;;;4165260;28;20040;-77
2021/07/13 00:17:56;;;;;;;44.03;39.78;;;18.00;99.90;;;;;;4174750;28;20052;-76
2021/07/13 00:19:56;;;;;;;40.63;36.70;;;18.00;99.90;;;;;;4169324;28;20038;-76
2021/07/13 00:21:57;;;;;;;42.42;38.53;;;18.00;99.90;;;;;;4164138;28;20047;-76
2021/07/13 00:23:58;;;;;;;40.22;36.28;;;18.10;99.90;;;;;;4165658;28;20067;-76
2021/07/13 00:25:59;;;;;;;43.72;39.35;;;18.10;99.90;;;;;;4163916;28;20073;-76
2021/07/13 00:27:59;;;;;;;44.33;40.03;;;18.10;99.90;;;;;;4164341;28;20060;-76
2021/07/13 00:30:00;;;;;;;44.42;39.80;;;18.10;99.90;;;;;;4155678;28;20069;-76
2021/07/13 00:32:01;;;;;;;42.97;38.80;;;18.10;99.90;;;;;;4165066;28;20107;-76
2021/07/13 00:34:01;;;;;;;42.72;38.72;;;18.10;99.90;;;;;;4156314;28;20432;-76
2021/07/13 00:36:02;;;;;;;43.20;39.00;;;18.10;99.90;;;;;;4164432;28;20102;-76
2021/07/13 00:38:03;;;;;;;42.75;38.75;;;18.10;99.90;;;;;;4165288;28;20489;-76
2021/07/13 00:40:08;;;;;;;41.92;38.05;;;18.20;99.90;;;;;;4165358;28;20150;-76
2021/07/13 00:42:17;;;;;;;43.80;39.67;;;18.20;99.90;;;;;;4164006;28;20030;-76
2021/07/13 00:44:19;;;;;;;42.40;38.50;;;18.30;99.90;;;;;;4155409;28;20692;-76
2021/07/13 00:46:20;;;;;;;45.97;41.47;;;18.30;99.90;;;;;;4163441;28;20409;-76
2021/07/13 00:48:23;;;;;;;43.28;39.10;;;18.20;99.90;;;;;;4164681;28;20117;-76
2021/07/13 00:50:26;;;;;;;45.10;40.85;;;18.20;99.90;;;;;;4164497;28;20104;-76
2021/07/13 00:52:28;;;;;;;41.03;37.20;;;18.20;99.90;;;;;;4163221;28;20122;-76
2021/07/13 00:54:30;;;;;;;41.85;38.10;;;18.20;99.90;;;;;;4163232;28;20049;-76
2021/07/13 00:56:31;;;;;;;39.30;35.53;;;18.30;99.90;;;;;;4163409;28;20061;-76
2021/07/13 00:58:31;;;;;;;41.22;37.53;;;18.30;99.90;;;;;;4163713;28;20060;-76
2021/07/13 01:00:33;;;;;;;45.05;40.70;;;18.30;99.90;;;;;;4163580;28;20033;-76
2021/07/13 01:02:34;;;;;;;43.97;39.63;;;18.30;99.90;;;;;;4162299;28;20511;-76
2021/07/13 01:04:45;;;;;;;42.53;38.53;;;18.30;99.90;;;;;;4162779;28;20036;-76
2021/07/13 01:06:49;;;;;;;42.13;38.17;;;18.30;99.90;;;;;;4161027;28;20434;-76
2021/07/13 01:09:03;;;;;;;44.92;40.60;;;18.30;99.90;;;;;;4162244;28;20077;-76
2021/07/13 01:11:34;;;;;;;42.47;38.40;;;18.20;99.90;;;;;;4164104;28;20033;-76
2021/07/13 01:14:01;;;;;;;45.03;40.30;;;18.20;99.90;;;;;;4158222;28;20021;-76
2021/07/13 01:16:26;;;;;;;47.92;43.28;;;18.20;99.90;;;;;;4166199;28;20060;-76
2021/07/13 01:18:30;;;;;;;45.88;41.50;;;18.20;99.90;;;;;;4175872;28;20032;-76
2021/07/13 01:20:49;;;;;;;48.55;43.80;;;18.20;99.90;;;;;;4162982;28;20034;-76
2021/07/13 01:22:53;;;;;;;49.10;44.35;;;18.20;99.90;;;;;;4164319;28;20572;-76
2021/07/13 01:24:59;;;;;;;49.30;44.42;;;18.20;99.90;;;;;;4162873;28;20040;-76
2021/07/13 01:27:09;;;;;;;51.13;46.13;;;18.20;99.90;;;;;;4151858;28;20584;-76
2021/07/13 01:29:12;;;;;;;52.97;47.97;;;18.20;99.90;;;;;;4162882;28;20100;-76
2021/07/13 01:31:17;;;;;;;49.90;45.15;;;18.20;99.90;;;;;;4163263;28;20484;-76
2021/07/13 01:33:23;;;;;;;50.22;44.90;;;18.10;99.90;;;;;;4178289;28;20445;-76
2021/07/13 01:35:50;;;;;;;48.95;44.28;;;18.10;99.90;;;;;;4161445;28;20037;-76
2021/07/13 01:37:53;;;;;;;52.72;47.35;;;18.10;99.90;;;;;;4158677;28;20033;-76
2021/07/13 01:39:55;;;;;;;55.17;49.88;;;18.10;99.90;;;;;;4156607;28;20037;-76
2021/07/13 01:42:01;;;;;;;53.78;48.63;;;18.00;99.90;;;;;;4162891;28;20061;-76
2021/07/13 01:44:02;;;;;;;53.50;48.28;;;18.00;99.90;;;;;;4162612;28;20475;-77
2021/07/13 01:46:03;;;;;;;56.25;50.75;;;17.90;99.90;;;;;;4163988;28;20060;-76
2021/07/13 01:48:05;;;;;;;52.70;47.45;;;17.90;99.90;;;;;;4163689;28;20056;-76
2021/07/13 01:50:10;;;;;;;50.70;45.67;;;17.90;99.90;;;;;;4163897;28;20030;-76
2021/07/13 01:52:12;;;;;;;49.53;44.72;;;18.10;99.90;;;;;;4164269;28;20042;-76
2021/07/13 01:54:14;;;;;;;53.08;47.90;;;18.10;99.90;;;;;;4162723;28;20475;-76
2021/07/13 01:56:16;;;;;;;52.92;47.78;;;18.10;99.90;;;;;;4163836;28;20037;-76
2021/07/13 01:58:20;;;;;;;52.47;47.38;;;18.00;99.90;;;;;;4161576;28;20569;-76
2021/07/13 02:00:21;;;;;;;50.90;45.85;;;18.00;99.90;;;;;;4158499;28;20051;-76
2021/07/13 02:02:24;;;;;;;52.75;47.50;;;18.00;99.90;;;;;;4164251;28;20022;-76
2021/07/13 02:04:29;;;;;;;52.97;47.75;;;18.00;99.90;;;;;;4150965;28;20038;-76
2021/07/13 02:06:31;;;;;;;55.97;50.25;;;17.90;99.90;;;;;;4159900;28;20032;-76
2021/07/13 02:08:38;;;;;;;54.40;48.67;;;17.90;99.90;;;;;;4162523;28;20491;-76
2021/07/13 02:10:39;;;;;;;56.95;50.90;;;17.80;99.90;;;;;;4162541;28;20052;-76
2021/07/13 02:12:40;;;;;;;56.72;50.97;;;17.90;99.90;;;;;;4163181;28;20032;-76
2021/07/13 02:14:41;;;;;;;57.78;51.92;;;17.90;99.90;;;;;;4163801;28;20029;-76
2021/07/13 02:16:42;;;;;;;59.70;53.67;;;17.80;99.90;;;;;;4163865;28;20033;-76
2021/07/13 02:18:43;;;;;;;57.53;51.42;;;17.80;99.90;;;;;;4187126;28;20029;-76
2021/07/13 02:20:43;;;;;;;54.97;49.35;;;17.80;99.90;;;;;;4149382;28;20034;-76
2021/07/13 02:22:44;;;;;;;58.88;49.53;;;17.80;99.90;;;;;;4145856;28;20509;-76
2021/07/13 02:24:45;;;;;;;60.90;54.25;;;17.80;99.90;;;;;;4147343;28;20053;-76
2021/07/13 02:26:51;;;;;;;57.60;51.72;;;17.70;99.90;;;;;;4155412;28;20117;-76
2021/07/13 02:28:59;;;;;;;58.35;52.63;;;17.70;99.90;;;;;;4161790;28;20033;-76
2021/07/13 02:31:11;;;;;;;57.38;51.38;;;17.70;99.90;;;;;;4163445;28;20037;-76
2021/07/13 02:33:27;;;;;;;56.80;51.05;;;17.70;99.90;;;;;;4162760;28;20087;-76
2021/07/13 02:35:36;;;;;;;53.47;47.88;;;17.70;99.90;;;;;;4163604;28;20036;-76
2021/07/13 02:37:39;;;;;;;57.03;51.22;;;17.80;99.90;;;;;;4147462;28;20563;-76
2021/07/13 02:39:42;;;;;;;57.17;50.72;;;17.80;99.90;;;;;;4153095;28;20452;-76
2021/07/13 02:41:45;;;;;;;51.05;45.72;;;17.80;99.90;;;;;;4157690;28;20105;-76
2021/07/13 02:43:46;;;;;;;51.70;46.60;;;17.80;99.90;;;;;;4161270;28;20405;-76
2021/07/13 02:45:51;;;;;;;50.00;44.47;;;17.80;99.90;;;;;;4157368;28;20484;-76
2021/07/13 02:47:54;;;;;;;52.00;46.65;;;17.80;99.90;;;;;;4155155;28;20119;-76
2021/07/13 02:49:56;;;;;;;;;;;17.70;99.90;;;;;;4156046;28;20030;-76
2021/07/13 02:51:58;;;;;;;57.97;51.45;;;17.70;99.90;;;;;;4153830;28;19916;-75
2021/07/13 02:53:59;;;;;;;50.53;45.28;;;17.70;99.90;;;;;;4162075;28;20144;-76
2021/07/13 02:56:01;;;;;;;55.42;49.45;;;17.80;99.90;;;;;;4162893;28;20065;-76
2021/07/13 02:58:04;;;;;;;57.20;51.25;;;17.80;99.90;;;;;;4162221;28;20037;-76
2021/07/13 03:00:08;;;;;;;54.95;49.05;;;17.90;99.90;;;;;;4162552;28;20045;-75
2021/07/13 03:02:09;;;;;;;56.55;48.25;;;17.90;99.90;;;;;;4161322;28;20489;-76
2021/07/13 03:04:10;;;;;;;54.13;48.50;;;17.90;99.90;;;;;;4162612;28;20033;-76
2021/07/13 03:06:14;;;;;;;48.03;43.15;;;17.90;99.90;;;;;;4162491;28;20030;-76
2021/07/13 03:08:15;;;;;;;55.10;48.22;;;17.90;99.90;;;;;;4148973;28;20033;-76
2021/07/13 03:10:21;;;;;;;52.83;47.38;;;17.90;99.90;;;;;;4162578;28;20022;-76
2021/07/13 03:12:22;;;;;;;53.55;47.78;;;17.90;99.90;;;;;;4161465;28;20029;-76
2021/07/13 03:14:24;;;;;;;51.55;46.13;;;17.90;99.90;;;;;;4159761;28;20038;-76
2021/07/13 03:16:25;;;;;;;56.13;50.22;;;17.90;99.90;;;;;;4154590;28;20034;-76
2021/07/13 03:18:29;;;;;;;54.88;49.20;;;18.00;99.90;;;;;;4154430;28;20156;-76
2021/07/13 03:20:31;;;;;;;60.42;54.20;;;18.00;99.90;;;;;;4150174;28;20034;-76
2021/07/13 03:22:36;;;;;;;52.72;47.03;;;18.00;99.90;;;;;;4154629;28;20033;-76
2021/07/13 03:24:40;;;;;;;52.25;46.75;;;17.90;99.90;;;;;;4162316;28;20232;-76
2021/07/13 03:26:44;;;;;;;53.15;47.63;;;17.90;99.90;;;;;;4154427;28;20033;-76
2021/07/13 03:28:46;;;;;;;58.30;52.10;;;17.90;99.90;;;;;;4162036;28;20041;-76
2021/07/13 03:30:51;;;;;;;55.22;48.50;;;18.00;99.90;;;;;;4154408;28;20037;-76
2021/07/13 03:32:53;;;;;;;58.35;51.67;;;18.10;99.90;;;;;;4154263;28;20041;-76
2021/07/13 03:34:57;;;;;;;64.38;54.97;;;18.10;99.90;;;;;;4162351;28;20063;-76
2021/07/13 03:36:58;;;;;;;59.65;52.70;;;18.10;99.90;;;;;;4154299;28;20033;-76
2021/07/13 03:39:00;;;;;;;59.30;52.80;;;18.20;99.90;;;;;;4154355;28;20056;-76
2021/07/13 03:41:01;;;;;;;61.13;53.38;;;18.20;99.90;;;;;;4152891;28;20494;-76
2021/07/13 03:43:02;;;;;;;59.28;52.15;;;18.30;99.90;;;;;;4153804;28;20125;-76
2021/07/13 03:45:04;;;;;;;58.85;52.55;;;18.30;99.90;;;;;;4154197;28;20075;-76
2021/07/13 03:47:04;;;;;;;59.67;53.10;;;18.40;99.90;;;;;;4154095;28;20040;-76
2021/07/13 03:49:07;;;;;;;63.90;55.80;;;18.40;99.90;;;;;;4154177;28;20030;-76
2021/07/13 03:51:14;;;;;;;60.05;51.00;;;18.40;99.90;;;;;;4154089;28;20021;-76
2021/07/13 03:53:15;;;;;;;58.20;51.40;;;18.40;99.90;;;;;;4148183;28;20143;-76
2021/07/13 03:55:15;;;;;;;60.03;50.08;;;18.50;99.90;;;;;;4154076;28;20555;-77
2021/07/13 03:57:16;;;;;;;57.58;51.25;;;18.60;99.90;;;;;;4152392;28;20552;-77
2021/07/13 03:59:17;;;;;;;58.65;50.90;;;18.60;99.90;;;;;;4153488;28;20041;-77
2021/07/13 04:01:18;;;;;;;59.92;53.40;;;18.60;99.90;;;;;;4154169;28;20106;-76
2021/07/13 04:03:18;;;;;;;61.65;52.38;;;18.50;99.90;;;;;;4160653;28;20040;-76
2021/07/13 04:05:19;;;;;;;68.82;53.35;;;18.50;99.90;;;;;;4162114;28;20105;-77
2021/07/13 04:07:19;;;;;;;74.38;55.78;;;18.50;99.90;;;;;;4162220;28;20029;-77
2021/07/13 04:09:20;;;;;;;68.65;56.15;;;18.60;99.90;;;;;;4164762;28;20509;-76
2021/07/13 04:11:21;;;;;;;80.35;57.75;;;18.60;99.90;;;;;;4163941;28;21016;-76
2021/07/13 04:13:22;;;;;;;66.45;55.17;;;18.70;99.90;;;;;;4164790;28;20044;-76
2021/07/13 04:15:23;;;;;;;67.40;53.25;;;18.70;99.90;;;;;;4164397;28;20072;-76
2021/07/13 04:17:23;;;;;;;64.30;53.97;;;18.70;99.90;;;;;;4163855;28;20037;-76
2021/07/13 04:19:24;;;;;;;67.10;56.15;;;18.70;99.90;;;;;;4165090;28;20091;-76
2021/07/13 04:21:25;;;;;;;68.15;56.50;;;18.70;99.90;;;;;;4162579;28;20026;-76
2021/07/13 04:23:25;;;;;;;60.83;52.40;;;18.70;99.90;;;;;;4163298;28;20153;-76
2021/07/13 04:25:26;;;;;;;79.30;61.35;;;18.70;99.90;;;;;;4163556;28;20041;-76
2021/07/13 04:27:26;;;;;;;74.60;59.83;;;18.70;99.90;;;;;;4164347;28;20041;-76
2021/07/13 04:29:27;;;;;;;83.07;61.97;;;18.80;99.90;;;;;;4159079;28;20049;-76
2021/07/13 04:31:28;;;;;;;80.53;63.03;;;18.80;99.90;;;;;;4156746;28;20099;-76
2021/07/13 04:33:29;;;;;;;86.32;64.70;;;18.80;99.90;;;;;;4163322;28;20469;-77
2021/07/13 04:35:30;;;;;;;79.00;60.75;;;18.80;99.90;;;;;;4163282;28;20452;-76
2021/07/13 04:37:32;;;;;;;88.07;62.58;;;18.80;99.90;;;;;;4163732;28;20036;-76
2021/07/13 04:39:33;;;;;;;88.53;65.18;;;19.00;99.90;;;;;;4164615;28;20041;-76
2021/07/13 04:41:34;;;;;;;86.13;62.30;;;19.00;99.90;;;;;;4164728;28;20384;-76
2021/07/13 04:43:34;;;;;;;82.03;62.58;;;19.00;99.90;;;;;;4163162;28;20026;-76
2021/07/13 04:45:36;;;;;;;85.90;64.68;;;19.00;99.90;;;;;;4164390;28;20044;-76
2021/07/13 04:47:37;;;;;;;97.10;68.50;;;19.00;99.90;;;;;;4168852;28;20037;-76
2021/07/13 04:49:37;;;;;;;97.05;67.10;;;19.00;99.90;;;;;;4147281;28;20088;-76
2021/07/13 04:51:39;;;;;;;94.60;65.28;;;19.00;99.90;;;;;;4146147;28;20038;-77
2021/07/13 04:53:39;;;;;;;100.30;66.55;;;19.10;99.90;;;;;;4159988;28;20116;-77
2021/07/13 04:55:40;;;;;;;92.35;65.32;;;19.10;99.90;;;;;;4168025;28;20393;-76
2021/07/13 04:57:40;;;;;;;102.75;72.70;;;19.10;99.90;;;;;;4167901;28;20036;-77
2021/07/13 04:59:41;;;;;;;97.88;67.90;;;19.20;99.90;;;;;;4164408;28;20168;-77
2021/07/13 05:01:42;;;;;;;102.10;69.38;;;19.20;99.90;;;;;;4166587;28;20508;-76
2021/07/13 05:03:42;;;;;;;102.30;73.32;;;19.20;99.90;;;;;;4162647;28;20025;-76
2021/07/13 05:05:43;;;;;;;99.57;71.25;;;19.20;99.90;;;;;;4167314;28;20440;-76
2021/07/13 05:07:47;;;;;;;106.00;72.22;;;19.20;99.90;;;;;;4168501;28;20036;-77
2021/07/13 05:09:47;;;;;;;103.13;71.68;;;19.20;99.90;;;;;;4175713;28;20090;-76
2021/07/13 05:11:48;;;;;;;109.03;79.47;;;19.30;99.90;;;;;;4172706;28;20725;-76
2021/07/13 05:13:49;;;;;;;102.72;71.93;;;19.30;99.90;;;;;;4168268;28;20489;-76
2021/07/13 05:15:49;;;;;;;113.35;77.22;;;19.20;99.90;;;;;;4155673;28;20060;-76
2021/07/13 05:17:50;;;;;;;104.03;73.22;;;19.30;99.90;;;;;;4168001;28;20354;-76
2021/07/13 05:19:51;;;;;;;109.97;77.45;;;19.30;99.90;;;;;;4166424;28;20033;-76
2021/07/13 05:21:59;;;;;;;122.80;76.30;;;19.40;99.90;;;;;;4155850;28;20030;-76
2021/07/13 05:24:00;;;;;;;106.78;74.82;;;19.40;99.90;;;;;;4165606;28;20469;-76
2021/07/13 05:26:01;;;;;;;109.72;76.68;;;19.40;99.90;;;;;;4165131;28;20033;-76
2021/07/13 05:28:02;;;;;;;121.07;81.00;;;19.40;99.90;;;;;;4163369;28;20041;-76
2021/07/13 05:30:04;;;;;;;117.15;79.60;;;19.40;99.90;;;;;;4188055;28;20106;-76
2021/07/13 05:32:05;;;;;;;111.88;79.93;;;19.30;99.90;;;;;;4171156;28;20160;-75
2021/07/13 05:34:06;;;;;;;128.57;83.47;;;19.40;99.90;;;;;;4174604;28;20021;-76
2021/07/13 05:36:07;;;;;;;120.32;82.13;;;19.40;99.90;;;;;;4175944;28;20032;-76
2021/07/13 05:38:07;;;;;;;117.28;82.70;;;19.40;99.90;;;;;;4188824;28;20054;-76
2021/07/13 05:40:08;;;;;;;106.68;74.88;;;19.50;99.90;;;;;;4176049;28;20025;-76
2021/07/13 05:42:10;;;;;;;114.28;76.40;;;19.50;99.90;;;;;;4173976;28;20436;-76
2021/07/13 05:44:10;;;;;;;114.13;79.68;;;19.50;99.90;;;;;;4170307;28;20017;-75
2021/07/13 05:46:13;;;;;;;109.03;77.80;;;19.50;99.90;;;;;;4173284;28;20507;-75
2021/07/13 05:48:14;;;;;;;110.18;75.93;;;19.50;99.90;;;;;;4157422;28;20080;-75
2021/07/13 05:50:15;;;;;;;99.40;73.38;;;19.60;99.90;;;;;;4168400;28;20037;-75
2021/07/13 05:52:15;;;;;;;91.95;71.10;;;19.70;99.90;;;;;;4162048;28;20029;-75
2021/07/13 05:54:16;;;;;;;95.85;74.10;;;19.80;99.90;;;;;;4162228;28;20116;-75
2021/07/13 05:56:16;;;;;;;92.57;70.30;;;19.70;99.90;;;;;;4173864;28;20382;-74
2021/07/13 05:58:20;;;;;;;83.40;66.75;;;19.70;99.90;;;;;;4162449;28;20040;-75
2021/07/13 06:00:21;;;;;;;96.20;71.10;;;19.70;99.90;;;;;;4167225;28;20036;-75
2021/07/13 06:02:21;;;;;;;92.03;69.22;;;19.70;99.90;;;;;;4172148;28;20676;-75
2021/07/13 06:04:22;;;;;;;83.15;66.43;;;19.70;99.90;;;;;;4177611;28;20017;-75
2021/07/13 06:06:22;;;;;;;81.15;67.28;;;19.80;99.90;;;;;;4174718;28;20034;-75
2021/07/13 06:08:23;;;;;;;83.88;65.93;;;19.90;99.90;;;;;;4177567;28;20428;-75
2021/07/13 06:10:24;;;;;;;88.43;69.35;;;20.00;99.90;;;;;;4173807;28;20025;-75
2021/07/13 06:12:25;;;;;;;83.07;66.18;;;20.00;99.90;;;;;;4172823;28;20076;-75
2021/07/13 06:14:26;;;;;;;81.95;65.93;;;20.00;99.90;;;;;;4173155;28;20386;-76
2021/07/13 06:16:26;;;;;;;78.07;66.55;;;20.10;99.90;;;;;;4174002;28;20029;-76
2021/07/13 06:18:27;;;;;;;82.78;63.85;;;20.10;99.90;;;;;;4179115;28;20021;-76
2021/07/13 06:20:28;;;;;;;77.38;63.63;;;20.20;99.90;;;;;;4176594;28;20052;-75
2021/07/13 06:22:28;;;;;;;77.35;61.67;;;20.30;99.90;;;;;;4165397;28;20433;-76
2021/07/13 06:24:29;;;;;;;80.53;64.70;;;20.30;99.90;;;;;;4163467;28;20113;-76
2021/07/13 06:26:30;;;;;;;80.63;64.47;;;20.20;99.90;;;;;;4163162;28;20086;-75
2021/07/13 06:28:30;;;;;;;78.80;63.88;;;20.20;99.90;;;;;;4163139;28;20022;-76
2021/07/13 06:30:31;;;;;;;81.95;63.50;;;20.30;99.90;;;;;;4161904;28;20033;-76
2021/07/13 06:32:32;;;;;;;81.00;65.28;;;20.40;99.90;;;;;;4161191;28;20033;-76
2021/07/13 06:34:33;;;;;;;77.55;63.63;;;20.40;99.90;;;;;;4146117;28;20392;-76
2021/07/13 06:36:34;;;;;;;83.45;65.10;;;20.40;99.90;;;;;;4163598;28;20037;-75
2021/07/13 06:38:35;;;;;;;77.75;61.78;;;20.50;99.90;;;;;;4161893;28;20029;-75
2021/07/13 06:40:36;;;;;;;77.47;62.35;;;20.50;99.90;;;;;;4162865;28;20119;-75
2021/07/13 06:42:36;;;;;;;77.63;63.38;;;20.50;99.90;;;;;;4161610;28;20033;-76
2021/07/13 06:44:37;;;;;;;78.00;63.42;;;20.60;99.90;;;;;;4153341;28;20049;-75
2021/07/13 06:46:38;;;;;;;73.55;60.22;;;20.60;99.90;;;;;;4169306;28;20037;-75
2021/07/13 06:48:39;;;;;;;77.80;64.53;;;20.70;99.90;;;;;;4176230;28;20030;-75
2021/07/13 06:50:40;;;;;;;79.47;64.72;;;20.60;99.90;;;;;;4175794;28;20423;-75
2021/07/13 06:52:40;;;;;;;74.55;62.65;;;20.60;99.90;;;;;;4161468;28;20037;-75
2021/07/13 06:54:41;;;;;;;74.18;65.05;;;20.60;99.90;;;;;;4144729;28;20121;-76
2021/07/13 06:56:42;;;;;;;83.45;66.60;;;20.40;99.90;;;;;;4168259;28;20082;-76
2021/07/13 06:58:42;;;;;;;91.65;68.82;;;20.40;99.90;;;;;;4168391;28;20037;-75
2021/07/13 07:00:43;;;;;;;82.22;68.25;;;20.40;99.90;;;;;;4168489;28;20099;-75
2021/07/13 07:02:43;;;;;;;82.15;65.82;;;20.40;99.90;;;;;;4157728;28;20039;-75
2021/07/13 07:04:45;;;;;;;88.60;67.30;;;20.40;99.90;;;;;;4174687;28;20393;-75
2021/07/13 07:06:46;;;;;;;89.28;68.53;;;20.40;99.90;;;;;;4163424;28;20528;-76
2021/07/13 07:08:46;;;;;;;94.72;71.70;;;20.40;99.90;;;;;;4187859;28;20036;-75
2021/07/13 07:10:47;;;;;;;79.57;62.05;;;20.40;99.90;;;;;;4177050;28;20364;-76
2021/07/13 07:12:49;;;;;;;88.82;68.47;;;20.40;99.90;;;;;;4161234;28;20084;-76
2021/07/13 07:14:50;;;;;;;86.47;69.32;;;20.40;99.90;;;;;;4165935;28;20049;-76
2021/07/13 07:16:50;;;;;;;86.07;66.88;;;20.40;99.90;;;;;;4169352;28;20041;-76
2021/07/13 07:18:51;;;;;;;86.97;66.57;;;20.40;99.90;;;;;;4177974;28;20561;-76
2021/07/13 07:20:52;;;;;;;81.65;65.07;;;20.50;99.90;;;;;;4170924;28;20381;-76
2021/07/13 07:22:54;;;;;;;76.72;63.22;;;20.50;99.90;;;;;;4182225;28;20040;-76
2021/07/13 07:24:54;;;;;;;79.67;63.60;;;20.50;99.90;;;;;;4167128;28;20040;-76
2021/07/13 07:26:55;;;;;;;81.07;61.00;;;20.50;99.90;;;;;;4172689;28;20276;-75
2021/07/13 07:28:56;;;;;;;78.00;58.53;;;20.40;99.90;;;;;;4162660;28;20034;-75
2021/07/13 07:30:56;;;;;;;76.93;61.22;;;20.40;99.90;;;;;;4162913;28;20033;-75
2021/07/13 07:33:01;;;;;;;74.00;62.05;;;20.40;99.90;;;;;;4162599;28;20091;-76
2021/07/13 07:35:02;;;;;;;75.93;59.50;;;20.40;99.90;;;;;;4164366;28;20026;-76
2021/07/13 07:37:03;;;;;;;77.78;60.10;;;20.40;99.90;;;;;;4161030;28;20030;-76
2021/07/13 07:39:04;;;;;;;72.55;59.55;;;20.40;99.90;;;;;;4158609;28;20036;-75
2021/07/13 07:41:05;;;;;;;77.20;61.33;;;20.50;99.90;;;;;;4151556;28;20037;-75
2021/07/13 07:43:06;;;;;;;77.50;63.00;;;20.50;99.90;;;;;;4157249;28;20033;-75
2021/07/13 07:45:07;;;;;;;75.90;60.55;;;20.40;99.90;;;;;;4161137;28;20341;-75
2021/07/13 07:47:08;;;;;;;76.18;62.05;;;20.30;99.90;;;;;;4147709;28;20104;-75
2021/07/13 07:49:09;;;;;;;81.65;63.30;;;20.30;99.90;;;;;;4171501;28;20681;-75
2021/07/13 07:51:09;;;;;;;78.88;63.63;;;20.30;99.90;;;;;;4176054;28;20025;-75
2021/07/13 07:53:10;;;;;;;79.68;62.53;;;20.20;99.90;;;;;;4172667;28;20037;-75
2021/07/13 07:55:12;;;;;;;85.40;65.13;;;20.10;99.90;;;;;;4184994;28;20032;-75
2021/07/13 07:57:13;;;;;;;87.47;67.57;;;20.10;99.90;;;;;;4165450;28;20087;-76
2021/07/13 07:59:14;;;;;;;90.82;67.68;;;20.00;99.90;;;;;;4163129;28;20050;-75
2021/07/13 08:01:16;;;;;;;98.57;72.45;;;19.80;99.90;;;;;;4166815;28;20123;-75
2021/07/13 08:03:17;;;;;;;105.55;73.15;;;19.70;99.90;;;;;;4163927;28;20049;-76
2021/07/13 08:05:18;;;;;;;110.40;75.43;;;19.50;99.90;;;;;;4165141;28;20036;-78
2021/07/13 08:07:19;;;;;;;115.38;75.28;;;19.30;99.90;;;;;;4163167;28;20026;-78
2021/07/13 08:09:20;;;;;;;114.70;74.97;;;19.20;99.90;;;;;;4156153;28;20177;-78
2021/07/13 08:11:20;;;;;;;114.70;70.65;;;19.20;99.90;;;;;;4153748;28;20026;-78
2021/07/13 08:13:21;;;;;;;132.77;81.22;;;19.20;99.90;;;;;;4159304;28;20129;-78
2021/07/13 08:15:22;;;;;;;110.40;75.03;;;19.30;99.90;;;;;;4156072;28;20056;-78
2021/07/13 08:17:22;;;;;;;116.18;74.68;;;19.30;99.90;;;;;;4165037;28;20046;-78
2021/07/13 08:19:23;;;;;;;106.95;69.82;;;19.30;99.90;;;;;;4165880;28;20026;-79
2021/07/13 08:21:24;;;;;;;112.53;72.22;;;19.30;99.90;;;;;;4166470;28;20030;-78
2021/07/13 08:23:24;;;;;;;116.68;76.85;;;19.40;99.90;;;;;;4166986;28;20033;-78
2021/07/13 08:25:25;;;;;;;108.65;71.97;;;19.50;99.90;;;;;;4170287;28;20630;-78
2021/07/13 08:27:28;;;;;;;118.65;71.63;;;19.50;99.90;;;;;;4187531;28;20155;-78
2021/07/13 08:29:28;;;;;;;110.57;73.45;;;19.60;99.90;;;;;;4165390;28;20495;-78
2021/07/13 08:31:30;;;;;;;102.38;70.43;;;19.70;99.90;;;;;;4164378;28;20033;-78
2021/07/13 08:33:30;;;;;;;105.18;68.22;;;19.70;99.90;;;;;;4160489;28;20079;-78
2021/07/13 08:35:31;;;;;;;101.82;70.68;;;19.80;99.90;;;;;;4156433;28;20034;-78
2021/07/13 08:37:35;;;;;;;98.82;68.95;;;19.70;99.90;;;;;;4164846;28;20354;-78
2021/07/13 08:39:36;;;;;;;93.75;68.15;;;19.70;99.90;;;;;;4151494;28;20529;-78
2021/07/13 08:41:37;;;;;;;111.78;70.28;;;19.60;99.90;;;;;;4147987;28;20026;-78
2021/07/13 08:43:37;;;;;;;98.05;69.65;;;19.70;99.90;;;;;;4164176;28;20033;-78
2021/07/13 08:45:39;;;;;;;106.07;68.55;;;19.70;99.90;;;;;;4160133;28;20025;-78
2021/07/13 08:47:42;;;;;;;101.13;68.60;;;19.80;99.90;;;;;;4152565;28;20026;-78
2021/07/13 08:49:44;;;;;;;105.90;69.35;;;19.80;99.90;;;;;;4164006;28;20037;-78
2021/07/13 08:51:45;;;;;;;100.32;67.03;;;19.70;99.90;;;;;;4143715;28;20030;-77
2021/07/13 08:53:45;;;;;;;103.72;69.07;;;19.70;99.90;;;;;;4155115;28;20699;-78
2021/07/13 08:55:46;;;;;;;103.68;68.43;;;19.70;99.90;;;;;;4162462;28;20534;-77
2021/07/13 08:57:46;;;;;;;105.63;69.35;;;19.70;99.90;;;;;;4158418;28;20034;-77
2021/07/13 08:59:47;;;;;;;104.95;67.13;;;19.60;99.90;;;;;;4160931;28;20096;-77
2021/07/13 09:01:48;;;;;;;100.25;68.22;;;19.70;99.90;;;;;;4164365;28;20038;-77
2021/07/13 09:03:56;;;;;;;101.07;65.88;;;19.70;99.90;;;;;;4163759;28;20051;-76
2021/07/13 09:05:59;;;;;;;97.55;66.47;;;19.80;99.90;;;;;;4169611;28;20472;-77
2021/07/13 09:08:10;;;;;;;99.55;64.63;;;19.90;99.90;;;;;;4169231;28;21384;-77
2021/07/13 09:10:12;;;;;;;87.18;60.78;;;19.90;99.90;;;;;;4168862;28;20040;-76
2021/07/13 09:12:21;;;;;;;90.30;62.55;;;20.00;99.90;;;;;;4168157;28;20048;-76
2021/07/13 09:14:22;;;;;;;88.68;61.35;;;19.90;99.90;;;;;;4194200;28;20036;-76
2021/07/13 09:16:26;;;;;;;93.63;63.22;;;19.90;99.90;;;;;;4178565;28;20029;-76
2021/07/13 09:18:29;;;;;;;84.88;60.70;;;19.90;99.90;;;;;;4175625;28;20055;-76
2021/07/13 09:20:31;;;;;;;92.50;63.08;;;19.90;99.90;;;;;;4181697;28;20610;-76
2021/07/13 09:22:33;;;;;;;92.60;60.70;;;19.80;99.90;;;;;;4160823;28;20029;-76
2021/07/13 09:24:34;;;;;;;93.38;63.38;;;19.90;99.90;;;;;;4151698;28;20032;-77
2021/07/13 09:26:43;;;;;;;93.40;63.95;;;19.90;99.90;;;;;;4155243;28;20037;-76
2021/07/13 09:28:44;;;;;;;85.15;56.63;;;19.90;99.90;;;;;;4161177;28;20374;-76
2021/07/13 09:30:46;;;;;;;83.85;59.35;;;19.90;99.90;;;;;;4162352;28;20037;-77
2021/07/13 09:32:47;;;;;;;90.53;58.75;;;20.00;99.90;;;;;;4153210;28;20030;-77
2021/07/13 09:34:49;;;;;;;82.95;57.40;;;20.00;99.90;;;;;;4163237;28;20056;-76
2021/07/13 09:36:51;;;;;;;83.32;58.25;;;20.10;99.90;;;;;;4147963;28;20046;-77
2021/07/13 09:38:54;;;;;;;80.65;56.33;;;20.10;99.90;;;;;;4154663;28;20505;-77
2021/07/13 09:41:09;;;;;;;83.35;56.80;;;20.10;99.90;;;;;;4154070;28;20492;-76
2021/07/13 09:43:10;;;;;;;86.50;61.00;;;20.10;99.90;;;;;;4160947;28;20076;-77
2021/07/13 09:45:32;;;;;;;88.70;59.20;;;20.10;99.90;;;;;;4162059;28;20112;-78
2021/07/13 09:47:33;;;;;;;87.72;57.95;;;20.00;99.90;;;;;;4145774;28;20034;-79
2021/07/13 09:49:39;;;;;;;88.90;59.67;;;19.90;99.90;;;;;;4162678;28;20662;-79
2021/07/13 09:51:42;;;;;;;87.35;56.75;;;19.90;99.90;;;;;;4161554;28;20037;-78
2021/07/13 09:53:43;;;;;;;86.07;58.33;;;19.80;99.90;;;;;;4159392;28;20109;-78
2021/07/13 09:55:47;;;;;;;81.13;58.08;;;19.80;99.90;;;;;;4166285;28;20025;-78
2021/07/13 09:57:50;;;;;;;86.53;59.25;;;19.90;99.90;;;;;;4166108;28;20076;-78
2021/07/13 09:59:56;;;;;;;79.78;58.75;;;19.90;99.90;;;;;;4166256;28;20044;-78
2021/07/13 10:01:57;;;;;;;85.30;60.70;;;19.90;99.90;;;;;;4186873;28;20487;-78
2021/07/13 10:03:59;;;;;;;77.20;54.88;;;19.90;99.90;;;;;;4175102;28;20037;-78
2021/07/13 10:06:01;;;;;;;83.00;57.35;;;20.00;99.90;;;;;;4167234;28;20072;-78
2021/07/13 10:08:02;;;;;;;80.97;55.35;;;20.00;99.90;;;;;;4188193;28;20032;-78
2021/07/13 10:10:05;;;;;;;80.82;56.45;;;20.10;99.90;;;;;;4169219;28;20031;-79
2021/07/13 10:12:06;;;;;;;;;;;20.10;99.90;;;;;;4174142;28;20036;-78
2021/07/13 10:14:08;;;;;;;79.22;54.75;;;20.00;99.90;;;;;;4164920;28;19909;-78
2021/07/13 10:16:10;;;;;;;83.43;58.63;;;20.00;99.90;;;;;;4160695;28;20034;-78
2021/07/13 10:18:10;;;;;;;73.40;55.15;;;20.00;99.90;;;;;;4151585;28;20041;-77
2021/07/13 10:20:13;;;;;;;75.57;54.80;;;20.10;99.90;;;;;;4162032;28;20051;-78